sensor_id;sensor_type;location;lat;lon;timestamp;temperature;humidity
46720;DHT22;32452;51.382;-0.002;2023-12-07T00:01:30;5.80;99.90
46720;DHT22;32452;51.382;-0.002;2023-12-07T00:04:16;5.80;99.90
46720;DHT22;32452;51.382;-0.002;2023-12-07T00:07:02;5.80;99.90
46720;DHT22;32452;51.382;-0.002;2023-12-07T00:09:47;5.90;99.90
46720;DHT22;32452;51.382;-0.002;2023-12-07T00:12:33;5.90;99.90
46720;DHT22;32452;51.382;-0.002;2023-12-07T00:15:18;5.90;99.90
46720;DHT22;32452;51.382;-0.002;2023-12-07T00:18:04;6.00;99.90
46720;DHT22;32452;51.382;-0.002;2023-12-07T00:20:50;6.00;99.90
46720;DHT22;32452;51.382;-0.002;2023-12-07T00:23:35;6.00;99.90
46720;DHT22;32452;51.382;-0.002;2023-12-07T00:26:22;6.00;99.90
46720;DHT22;32452;51.382;-0.002;2023-12-07T00:29:08;6.00;99.90
46720;DHT22;32452;51.382;-0.002;2023-12-07T00:31:53;6.10;99.90
46720;DHT22;32452;51.382;-0.002;2023-12-07T00:34:39;6.10;99.90
46720;DHT22;32452;51.382;-0.002;2023-12-07T00:37:25;6.10;99.90
46720;DHT22;32452;51.382;-0.002;2023-12-07T00:40:10;6.10;99.90
46720;DHT22;32452;51.382;-0.002;2023-12-07T00:42:57;6.10;99.90
46720;DHT22;32452;51.382;-0.002;2023-12-07T00:45:43;6.10;99.90
46720;DHT22;32452;51.382;-0.002;2023-12-07T00:48:29;6.10;99.90
46720;DHT22;32452;51.382;-0.002;2023-12-07T00:51:14;6.10;99.90
46720;DHT22;32452;51.382;-0.002;2023-12-07T00:54:00;6.10;99.90
46720;DHT22;32452;51.382;-0.002;2023-12-07T00:56:46;6.10;99.90
46720;DHT22;32452;51.382;-0.002;2023-12-07T00:59:32;6.20;99.90
46720;DHT22;32452;51.382;-0.002;2023-12-07T01:02:20;6.20;99.90
46720;DHT22;32452;51.382;-0.002;2023-12-07T01:05:05;6.20;99.90
46720;DHT22;32452;51.382;-0.002;2023-12-07T01:07:51;6.20;99.90
46720;DHT22;32452;51.382;-0.002;2023-12-07T01:10:37;6.20;99.90
46720;DHT22;32452;51.382;-0.002;2023-12-07T01:13:22;6.20;99.90
46720;DHT22;32452;51.382;-0.002;2023-12-07T01:16:08;6.30;99.90
46720;DHT22;32452;51.382;-0.002;2023-12-07T01:18:54;6.30;99.90
46720;DHT22;32452;51.382;-0.002;2023-12-07T01:21:43;6.30;99.90
46720;DHT22;32452;51.382;-0.002;2023-12-07T01:24:28;6.30;99.90
46720;DHT22;32452;51.382;-0.002;2023-12-07T01:27:15;6.30;99.90
46720;DHT22;32452;51.382;-0.002;2023-12-07T01:30:01;6.30;99.90
46720;DHT22;32452;51.382;-0.002;2023-12-07T01:32:47;6.30;99.90
46720;DHT22;32452;51.382;-0.002;2023-12-07T01:35:33;6.30;99.90
46720;DHT22;32452;51.382;-0.002;2023-12-07T01:38:18;6.30;99.90
46720;DHT22;32452;51.382;-0.002;2023-12-07T01:41:05;6.30;99.90
46720;DHT22;32452;51.382;-0.002;2023-12-07T01:43:50;6.30;99.90
46720;DHT22;32452;51.382;-0.002;2023-12-07T01:46:36;6.30;99.90
46720;DHT22;32452;51.382;-0.002;2023-12-07T01:49:22;6.30;99.90
46720;DHT22;32452;51.382;-0.002;2023-12-07T01:52:08;6.40;99.90
46720;DHT22;32452;51.382;-0.002;2023-12-07T01:54:55;6.40;99.90
46720;DHT22;32452;51.382;-0.002;2023-12-07T01:57:43;6.40;99.90
46720;DHT22;32452;51.382;-0.002;2023-12-07T02:00:29;6.40;99.90
46720;DHT22;32452;51.382;-0.002;2023-12-07T02:03:16;6.40;99.90
46720;DHT22;32452;51.382;-0.002;2023-12-07T02:06:03;6.30;99.90
46720;DHT22;32452;51.382;-0.002;2023-12-07T02:08:49;6.40;99.90
46720;DHT22;32452;51.382;-0.002;2023-12-07T02:11:35;6.40;99.90
46720;DHT22;32452;51.382;-0.002;2023-12-07T02:14:20;6.30;99.90
46720;DHT22;32452;51.382;-0.002;2023-12-07T02:17:27;6.40;99.90
46720;DHT22;32452;51.382;-0.002;2023-12-07T02:23:01;6.30;99.90
46720;DHT22;32452;51.382;-0.002;2023-12-07T02:25:52;6.30;99.90
46720;DHT22;32452;51.382;-0.002;2023-12-07T02:28:38;6.40;99.90
46720;DHT22;32452;51.382;-0.002;2023-12-07T02:31:24;6.40;99.90
46720;DHT22;32452;51.382;-0.002;2023-12-07T02:34:09;6.40;99.90
46720;DHT22;32452;51.382;-0.002;2023-12-07T02:36:57;6.40;99.90
46720;DHT22;32452;51.382;-0.002;2023-12-07T02:39:44;6.40;99.90
46720;DHT22;32452;51.382;-0.002;2023-12-07T02:42:31;6.40;99.90
46720;DHT22;32452;51.382;-0.002;2023-12-07T02:45:18;6.30;99.90
46720;DHT22;32452;51.382;-0.002;2023-12-07T02:48:03;6.30;99.90
46720;DHT22;32452;51.382;-0.002;2023-12-07T02:50:49;6.30;99.90
46720;DHT22;32452;51.382;-0.002;2023-12-07T02:53:35;6.30;99.90
46720;DHT22;32452;51.382;-0.002;2023-12-07T02:56:21;6.30;99.90
46720;DHT22;32452;51.382;-0.002;2023-12-07T02:59:06;6.30;99.90
46720;DHT22;32452;51.382;-0.002;2023-12-07T03:01:52;6.30;99.90
46720;DHT22;32452;51.382;-0.002;2023-12-07T03:04:37;6.30;99.90
46720;DHT22;32452;51.382;-0.002;2023-12-07T03:07:23;6.40;99.90
46720;DHT22;32452;51.382;-0.002;2023-12-07T03:10:09;6.40;99.90
46720;DHT22;32452;51.382;-0.002;2023-12-07T03:12:54;6.40;99.90
46720;DHT22;32452;51.382;-0.002;2023-12-07T03:15:40;6.40;99.90
46720;DHT22;32452;51.382;-0.002;2023-12-07T03:18:26;6.40;99.90
46720;DHT22;32452;51.382;-0.002;2023-12-07T03:21:12;6.40;99.90
46720;DHT22;32452;51.382;-0.002;2023-12-07T03:23:57;6.40;99.90
46720;DHT22;32452;51.382;-0.002;2023-12-07T03:26:43;6.40;99.90
46720;DHT22;32452;51.382;-0.002;2023-12-07T03:29:29;6.40;99.90
46720;DHT22;32452;51.382;-0.002;2023-12-07T03:32:14;6.50;99.90
46720;DHT22;32452;51.382;-0.002;2023-12-07T03:35:00;6.50;99.90
46720;DHT22;32452;51.382;-0.002;2023-12-07T03:37:45;6.50;99.90
46720;DHT22;32452;51.382;-0.002;2023-12-07T03:40:31;6.50;99.90
46720;DHT22;32452;51.382;-0.002;2023-12-07T03:43:19;6.50;99.90
46720;DHT22;32452;51.382;-0.002;2023-12-07T03:46:06;6.50;99.90
46720;DHT22;32452;51.382;-0.002;2023-12-07T03:48:52;6.50;99.90
46720;DHT22;32452;51.382;-0.002;2023-12-07T03:51:38;6.50;99.90
46720;DHT22;32452;51.382;-0.002;2023-12-07T03:54:24;6.50;99.90
46720;DHT22;32452;51.382;-0.002;2023-12-07T03:57:09;6.50;99.90
46720;DHT22;32452;51.382;-0.002;2023-12-07T03:59:55;6.50;99.90
46720;DHT22;32452;51.382;-0.002;2023-12-07T04:02:40;6.50;99.90
46720;DHT22;32452;51.382;-0.002;2023-12-07T04:05:26;6.50;99.90
46720;DHT22;32452;51.382;-0.002;2023-12-07T04:08:12;6.50;99.90
46720;DHT22;32452;51.382;-0.002;2023-12-07T04:10:57;6.50;99.90
46720;DHT22;32452;51.382;-0.002;2023-12-07T04:13:43;6.50;99.90
46720;DHT22;32452;51.382;-0.002;2023-12-07T04:16:29;6.50;99.90
46720;DHT22;32452;51.382;-0.002;2023-12-07T04:19:14;6.50;99.90
46720;DHT22;32452;51.382;-0.002;2023-12-07T04:22:00;6.50;99.90
46720;DHT22;32452;51.382;-0.002;2023-12-07T04:24:46;6.50;99.90
46720;DHT22;32452;51.382;-0.002;2023-12-07T04:27:33;6.50;99.90
46720;DHT22;32452;51.382;-0.002;2023-12-07T04:30:18;6.50;99.90
46720;DHT22;32452;51.382;-0.002;2023-12-07T04:33:04;6.50;99.90
46720;DHT22;32452;51.382;-0.002;2023-12-07T04:35:50;6.50;99.90
46720;DHT22;32452;51.382;-0.002;2023-12-07T04:38:36;6.50;99.90
46720;DHT22;32452;51.382;-0.002;2023-12-07T04:41:21;6.50;99.90
46720;DHT22;32452;51.382;-0.002;2023-12-07T04:44:07;6.60;99.90
46720;DHT22;32452;51.382;-0.002;2023-12-07T04:46:52;6.60;99.90
46720;DHT22;32452;51.382;-0.002;2023-12-07T04:49:38;6.50;99.90
46720;DHT22;32452;51.382;-0.002;2023-12-07T04:52:24;6.60;99.90
46720;DHT22;32452;51.382;-0.002;2023-12-07T04:55:10;6.60;99.90
46720;DHT22;32452;51.382;-0.002;2023-12-07T04:57:56;6.60;99.90
46720;DHT22;32452;51.382;-0.002;2023-12-07T05:00:41;6.60;99.90
46720;DHT22;32452;51.382;-0.002;2023-12-07T05:03:27;6.60;99.90
46720;DHT22;32452;51.382;-0.002;2023-12-07T05:06:13;6.70;99.90
46720;DHT22;32452;51.382;-0.002;2023-12-07T05:08:58;6.70;99.90
46720;DHT22;32452;51.382;-0.002;2023-12-07T05:11:44;6.70;99.90
46720;DHT22;32452;51.382;-0.002;2023-12-07T05:14:31;6.70;99.90
46720;DHT22;32452;51.382;-0.002;2023-12-07T05:17:17;6.70;99.90
46720;DHT22;32452;51.382;-0.002;2023-12-07T05:20:03;6.70;99.90
46720;DHT22;32452;51.382;-0.002;2023-12-07T05:22:50;6.70;99.90
46720;DHT22;32452;51.382;-0.002;2023-12-07T05:25:36;6.60;99.90
46720;DHT22;32452;51.382;-0.002;2023-12-07T05:28:21;6.70;99.90
46720;DHT22;32452;51.382;-0.002;2023-12-07T05:31:08;6.70;99.90
46720;DHT22;32452;51.382;-0.002;2023-12-07T05:33:54;6.60;99.90
46720;DHT22;32452;51.382;-0.002;2023-12-07T05:36:40;6.70;99.90
46720;DHT22;32452;51.382;-0.002;2023-12-07T05:39:25;6.70;99.90
46720;DHT22;32452;51.382;-0.002;2023-12-07T05:42:11;6.70;99.90
46720;DHT22;32452;51.382;-0.002;2023-12-07T05:44:57;6.70;99.90
46720;DHT22;32452;51.382;-0.002;2023-12-07T05:47:43;6.70;99.90
46720;DHT22;32452;51.382;-0.002;2023-12-07T05:50:29;6.70;99.90
46720;DHT22;32452;51.382;-0.002;2023-12-07T05:53:14;6.70;99.90
46720;DHT22;32452;51.382;-0.002;2023-12-07T05:56:01;6.60;99.90
46720;DHT22;32452;51.382;-0.002;2023-12-07T05:58:49;6.70;99.90
46720;DHT22;32452;51.382;-0.002;2023-12-07T06:01:34;6.60;99.90
46720;DHT22;32452;51.382;-0.002;2023-12-07T06:04:20;6.70;99.90
46720;DHT22;32452;51.382;-0.002;2023-12-07T06:07:05;6.70;99.90
46720;DHT22;32452;51.382;-0.002;2023-12-07T06:09:51;6.70;99.90
46720;DHT22;32452;51.382;-0.002;2023-12-07T06:12:37;6.70;99.90
46720;DHT22;32452;51.382;-0.002;2023-12-07T06:15:22;6.70;99.90
46720;DHT22;32452;51.382;-0.002;2023-12-07T06:18:08;6.70;99.90
46720;DHT22;32452;51.382;-0.002;2023-12-07T06:20:53;6.70;99.90
46720;DHT22;32452;51.382;-0.002;2023-12-07T06:23:40;6.80;99.90
46720;DHT22;32452;51.382;-0.002;2023-12-07T06:26:26;6.70;99.90
46720;DHT22;32452;51.382;-0.002;2023-12-07T06:29:11;6.70;99.90
46720;DHT22;32452;51.382;-0.002;2023-12-07T06:31:57;6.70;99.90
46720;DHT22;32452;51.382;-0.002;2023-12-07T06:34:42;6.70;99.90
46720;DHT22;32452;51.382;-0.002;2023-12-07T06:37:28;6.70;99.90
46720;DHT22;32452;51.382;-0.002;2023-12-07T06:40:14;6.70;99.90
46720;DHT22;32452;51.382;-0.002;2023-12-07T06:42:59;6.70;99.90
46720;DHT22;32452;51.382;-0.002;2023-12-07T06:45:45;6.80;99.90
46720;DHT22;32452;51.382;-0.002;2023-12-07T06:48:31;6.80;99.90
46720;DHT22;32452;51.382;-0.002;2023-12-07T06:51:17;6.80;99.90
46720;DHT22;32452;51.382;-0.002;2023-12-07T06:54:02;6.80;99.90
46720;DHT22;32452;51.382;-0.002;2023-12-07T06:56:48;6.80;99.90
46720;DHT22;32452;51.382;-0.002;2023-12-07T06:59:34;6.80;99.90
46720;DHT22;32452;51.382;-0.002;2023-12-07T07:02:20;6.80;99.90
46720;DHT22;32452;51.382;-0.002;2023-12-07T07:05:06;6.80;99.90
46720;DHT22;32452;51.382;-0.002;2023-12-07T07:07:52;6.80;99.90
46720;DHT22;32452;51.382;-0.002;2023-12-07T07:10:38;6.80;99.90
46720;DHT22;32452;51.382;-0.002;2023-12-07T07:13:23;6.80;99.90
46720;DHT22;32452;51.382;-0.002;2023-12-07T07:16:09;6.80;99.90
46720;DHT22;32452;51.382;-0.002;2023-12-07T07:18:55;6.80;99.90
46720;DHT22;32452;51.382;-0.002;2023-12-07T07:21:41;6.80;99.90
46720;DHT22;32452;51.382;-0.002;2023-12-07T07:24:26;6.80;99.90
46720;DHT22;32452;51.382;-0.002;2023-12-07T07:27:13;6.80;99.90
46720;DHT22;32452;51.382;-0.002;2023-12-07T07:29:59;6.80;99.90
46720;DHT22;32452;51.382;-0.002;2023-12-07T07:32:44;6.80;99.90
46720;DHT22;32452;51.382;-0.002;2023-12-07T07:35:30;6.80;99.90
46720;DHT22;32452;51.382;-0.002;2023-12-07T07:38:15;6.80;99.90
46720;DHT22;32452;51.382;-0.002;2023-12-07T07:41:01;6.90;99.90
46720;DHT22;32452;51.382;-0.002;2023-12-07T07:43:46;6.80;99.90
46720;DHT22;32452;51.382;-0.002;2023-12-07T07:46:32;6.90;99.90
46720;DHT22;32452;51.382;-0.002;2023-12-07T07:49:18;6.90;99.90
46720;DHT22;32452;51.382;-0.002;2023-12-07T07:52:04;6.80;99.90
46720;DHT22;32452;51.382;-0.002;2023-12-07T07:54:50;6.80;99.90
46720;DHT22;32452;51.382;-0.002;2023-12-07T07:57:36;6.90;99.90
46720;DHT22;32452;51.382;-0.002;2023-12-07T08:00:22;6.80;99.90
46720;DHT22;32452;51.382;-0.002;2023-12-07T08:03:09;6.80;99.90
46720;DHT22;32452;51.382;-0.002;2023-12-07T08:05:55;6.80;99.90
46720;DHT22;32452;51.382;-0.002;2023-12-07T08:08:41;6.80;99.90
46720;DHT22;32452;51.382;-0.002;2023-12-07T08:11:26;6.90;99.90
46720;DHT22;32452;51.382;-0.002;2023-12-07T08:14:12;6.90;99.90
46720;DHT22;32452;51.382;-0.002;2023-12-07T08:16:58;6.90;99.90
46720;DHT22;32452;51.382;-0.002;2023-12-07T08:19:44;6.90;99.90
46720;DHT22;32452;51.382;-0.002;2023-12-07T08:22:29;7.00;99.90
46720;DHT22;32452;51.382;-0.002;2023-12-07T08:25:15;7.00;99.90
46720;DHT22;32452;51.382;-0.002;2023-12-07T08:28:02;7.00;99.90
46720;DHT22;32452;51.382;-0.002;2023-12-07T08:30:48;7.00;99.90
46720;DHT22;32452;51.382;-0.002;2023-12-07T08:33:34;7.00;99.90
46720;DHT22;32452;51.382;-0.002;2023-12-07T08:36:20;7.00;99.90
46720;DHT22;32452;51.382;-0.002;2023-12-07T08:39:06;7.10;99.90
46720;DHT22;32452;51.382;-0.002;2023-12-07T08:41:55;7.10;99.90
46720;DHT22;32452;51.382;-0.002;2023-12-07T08:44:42;7.10;99.90
46720;DHT22;32452;51.382;-0.002;2023-12-07T08:47:27;7.10;99.90
46720;DHT22;32452;51.382;-0.002;2023-12-07T08:50:15;7.10;99.90
46720;DHT22;32452;51.382;-0.002;2023-12-07T08:53:01;7.10;99.90
46720;DHT22;32452;51.382;-0.002;2023-12-07T08:55:49;7.10;99.90
46720;DHT22;32452;51.382;-0.002;2023-12-07T08:58:35;7.10;99.90
46720;DHT22;32452;51.382;-0.002;2023-12-07T09:01:20;7.10;99.90
46720;DHT22;32452;51.382;-0.002;2023-12-07T09:04:17;7.10;99.90
46720;DHT22;32452;51.382;-0.002;2023-12-07T09:07:03;7.10;99.90
46720;DHT22;32452;51.382;-0.002;2023-12-07T09:09:49;7.20;99.90
46720;DHT22;32452;51.382;-0.002;2023-12-07T09:12:35;7.20;99.90
46720;DHT22;32452;51.382;-0.002;2023-12-07T09:15:24;7.20;99.90
46720;DHT22;32452;51.382;-0.002;2023-12-07T09:18:10;7.20;99.90
46720;DHT22;32452;51.382;-0.002;2023-12-07T09:20:58;7.20;99.90
46720;DHT22;32452;51.382;-0.002;2023-12-07T09:23:44;7.30;99.90
46720;DHT22;32452;51.382;-0.002;2023-12-07T09:26:30;7.30;99.90
46720;DHT22;32452;51.382;-0.002;2023-12-07T09:29:15;7.40;99.90
46720;DHT22;32452;51.382;-0.002;2023-12-07T09:32:01;7.40;99.90
46720;DHT22;32452;51.382;-0.002;2023-12-07T09:34:47;7.40;99.90
46720;DHT22;32452;51.382;-0.002;2023-12-07T09:37:33;7.40;99.90
46720;DHT22;32452;51.382;-0.002;2023-12-07T09:40:21;7.50;99.90
46720;DHT22;32452;51.382;-0.002;2023-12-07T09:43:07;7.50;99.90
46720;DHT22;32452;51.382;-0.002;2023-12-07T09:45:54;7.50;99.90
46720;DHT22;32452;51.382;-0.002;2023-12-07T09:48:42;7.60;99.90
46720;DHT22;32452;51.382;-0.002;2023-12-07T09:51:30;7.60;99.90
46720;DHT22;32452;51.382;-0.002;2023-12-07T09:54:19;7.60;99.90
46720;DHT22;32452;51.382;-0.002;2023-12-07T09:57:05;7.60;99.90
46720;DHT22;32452;51.382;-0.002;2023-12-07T09:59:51;7.60;99.90
46720;DHT22;32452;51.382;-0.002;2023-12-07T10:02:37;7.70;99.90
46720;DHT22;32452;51.382;-0.002;2023-12-07T10:05:23;7.70;99.90
46720;DHT22;32452;51.382;-0.002;2023-12-07T10:08:29;7.70;99.90
46720;DHT22;32452;51.382;-0.002;2023-12-07T10:11:15;7.70;99.90
46720;DHT22;32452;51.382;-0.002;2023-12-07T10:14:01;7.70;99.90
46720;DHT22;32452;51.382;-0.002;2023-12-07T10:16:54;7.80;99.90
46720;DHT22;32452;51.382;-0.002;2023-12-07T10:19:43;7.80;99.90
46720;DHT22;32452;51.382;-0.002;2023-12-07T10:22:28;7.80;99.90
46720;DHT22;32452;51.382;-0.002;2023-12-07T10:25:14;7.80;99.90
46720;DHT22;32452;51.382;-0.002;2023-12-07T10:28:00;7.80;99.90
46720;DHT22;32452;51.382;-0.002;2023-12-07T10:30:46;7.80;99.90
46720;DHT22;32452;51.382;-0.002;2023-12-07T10:33:31;7.80;99.90
46720;DHT22;32452;51.382;-0.002;2023-12-07T10:36:17;7.90;99.90
46720;DHT22;32452;51.382;-0.002;2023-12-07T10:39:03;7.90;99.90
46720;DHT22;32452;51.382;-0.002;2023-12-07T10:42:02;7.90;99.90
46720;DHT22;32452;51.382;-0.002;2023-12-07T10:44:50;7.90;99.90
46720;DHT22;32452;51.382;-0.002;2023-12-07T10:47:38;7.90;99.90
46720;DHT22;32452;51.382;-0.002;2023-12-07T10:50:26;7.90;99.90
46720;DHT22;32452;51.382;-0.002;2023-12-07T10:53:27;7.90;99.90
46720;DHT22;32452;51.382;-0.002;2023-12-07T10:56:22;8.00;99.90
46720;DHT22;32452;51.382;-0.002;2023-12-07T10:59:12;8.00;99.90
46720;DHT22;32452;51.382;-0.002;2023-12-07T11:02:16;8.00;99.90
46720;DHT22;32452;51.382;-0.002;2023-12-07T11:05:06;8.10;99.90
46720;DHT22;32452;51.382;-0.002;2023-12-07T11:07:59;8.10;99.90
46720;DHT22;32452;51.382;-0.002;2023-12-07T11:14:03;8.20;99.90
46720;DHT22;32452;51.382;-0.002;2023-12-07T11:16:52;8.20;99.90
46720;DHT22;32452;51.382;-0.002;2023-12-07T11:22:25;8.20;99.90
46720;DHT22;32452;51.382;-0.002;2023-12-07T11:25:11;8.20;99.90
46720;DHT22;32452;51.382;-0.002;2023-12-07T11:28:04;8.20;99.90
46720;DHT22;32452;51.382;-0.002;2023-12-07T11:30:50;8.20;99.90
46720;DHT22;32452;51.382;-0.002;2023-12-07T11:33:39;8.20;99.90
46720;DHT22;32452;51.382;-0.002;2023-12-07T11:36:25;8.20;99.90
46720;DHT22;32452;51.382;-0.002;2023-12-07T11:42:20;8.20;99.90
46720;DHT22;32452;51.382;-0.002;2023-12-07T11:45:08;8.20;99.90
46720;DHT22;32452;51.382;-0.002;2023-12-07T11:48:14;8.20;99.90
46720;DHT22;32452;51.382;-0.002;2023-12-07T11:51:05;8.20;99.90
46720;DHT22;32452;51.382;-0.002;2023-12-07T11:53:50;8.20;99.90
46720;DHT22;32452;51.382;-0.002;2023-12-07T11:56:36;8.20;99.90
46720;DHT22;32452;51.382;-0.002;2023-12-07T11:59:22;8.20;99.90
46720;DHT22;32452;51.382;-0.002;2023-12-07T12:02:18;8.20;99.90
46720;DHT22;32452;51.382;-0.002;2023-12-07T12:05:04;8.20;99.90
46720;DHT22;32452;51.382;-0.002;2023-12-07T12:07:50;8.20;99.90
46720;DHT22;32452;51.382;-0.002;2023-12-07T12:10:36;8.20;99.90
46720;DHT22;32452;51.382;-0.002;2023-12-07T12:13:29;8.20;99.90
46720;DHT22;32452;51.382;-0.002;2023-12-07T12:16:15;8.20;99.90
46720;DHT22;32452;51.382;-0.002;2023-12-07T12:19:01;8.20;99.90
46720;DHT22;32452;51.382;-0.002;2023-12-07T12:21:46;8.20;99.90
46720;DHT22;32452;51.382;-0.002;2023-12-07T12:24:36;8.20;99.90
46720;DHT22;32452;51.382;-0.002;2023-12-07T12:27:23;8.20;99.90
46720;DHT22;32452;51.382;-0.002;2023-12-07T12:30:10;8.20;99.90
46720;DHT22;32452;51.382;-0.002;2023-12-07T12:32:57;8.20;99.90
46720;DHT22;32452;51.382;-0.002;2023-12-07T12:35:43;8.20;99.90
46720;DHT22;32452;51.382;-0.002;2023-12-07T12:38:29;8.20;99.90
46720;DHT22;32452;51.382;-0.002;2023-12-07T12:41:26;8.30;99.90
46720;DHT22;32452;51.382;-0.002;2023-12-07T12:44:14;8.20;99.90
46720;DHT22;32452;51.382;-0.002;2023-12-07T12:47:12;8.20;99.90
46720;DHT22;32452;51.382;-0.002;2023-12-07T12:49:57;8.20;99.90
46720;DHT22;32452;51.382;-0.002;2023-12-07T12:52:44;8.20;99.90
46720;DHT22;32452;51.382;-0.002;2023-12-07T12:55:37;8.20;99.90
46720;DHT22;32452;51.382;-0.002;2023-12-07T12:58:23;8.20;99.90
46720;DHT22;32452;51.382;-0.002;2023-12-07T13:01:09;8.10;99.90
46720;DHT22;32452;51.382;-0.002;2023-12-07T13:03:55;8.10;99.90
46720;DHT22;32452;51.382;-0.002;2023-12-07T13:06:42;8.10;99.90
46720;DHT22;32452;51.382;-0.002;2023-12-07T13:09:29;8.10;99.90
46720;DHT22;32452;51.382;-0.002;2023-12-07T13:12:14;8.00;99.90
46720;DHT22;32452;51.382;-0.002;2023-12-07T13:15:00;8.00;99.90
46720;DHT22;32452;51.382;-0.002;2023-12-07T13:17:46;8.00;99.90
46720;DHT22;32452;51.382;-0.002;2023-12-07T13:20:31;8.00;99.90
46720;DHT22;32452;51.382;-0.002;2023-12-07T13:23:34;8.00;99.90
46720;DHT22;32452;51.382;-0.002;2023-12-07T13:26:20;8.00;99.90
46720;DHT22;32452;51.382;-0.002;2023-12-07T13:29:08;8.00;99.90
46720;DHT22;32452;51.382;-0.002;2023-12-07T13:32:06;7.90;99.90
46720;DHT22;32452;51.382;-0.002;2023-12-07T13:34:51;7.90;99.90
46720;DHT22;32452;51.382;-0.002;2023-12-07T13:37:38;7.90;99.90
46720;DHT22;32452;51.382;-0.002;2023-12-07T13:40:24;7.90;99.90
46720;DHT22;32452;51.382;-0.002;2023-12-07T13:43:12;7.90;99.90
46720;DHT22;32452;51.382;-0.002;2023-12-07T13:45:58;7.90;99.90
46720;DHT22;32452;51.382;-0.002;2023-12-07T13:48:44;7.80;99.90
46720;DHT22;32452;51.382;-0.002;2023-12-07T13:51:30;7.80;99.90
46720;DHT22;32452;51.382;-0.002;2023-12-07T13:54:15;7.80;99.90
46720;DHT22;32452;51.382;-0.002;2023-12-07T13:57:22;7.80;99.90
46720;DHT22;32452;51.382;-0.002;2023-12-07T14:00:12;7.80;99.90
46720;DHT22;32452;51.382;-0.002;2023-12-07T14:02:58;7.80;99.90
46720;DHT22;32452;51.382;-0.002;2023-12-07T14:05:44;7.80;99.90
46720;DHT22;32452;51.382;-0.002;2023-12-07T14:08:32;7.70;99.90
46720;DHT22;32452;51.382;-0.002;2023-12-07T14:11:18;7.70;99.90
46720;DHT22;32452;51.382;-0.002;2023-12-07T14:14:03;7.70;99.90
46720;DHT22;32452;51.382;-0.002;2023-12-07T14:16:49;7.70;99.90
46720;DHT22;32452;51.382;-0.002;2023-12-07T14:19:55;7.60;99.90
46720;DHT22;32452;51.382;-0.002;2023-12-07T14:23:00;7.70;99.90
46720;DHT22;32452;51.382;-0.002;2023-12-07T14:25:50;7.60;99.90
46720;DHT22;32452;51.382;-0.002;2023-12-07T14:28:37;7.60;99.90
46720;DHT22;32452;51.382;-0.002;2023-12-07T14:31:22;7.60;99.90
46720;DHT22;32452;51.382;-0.002;2023-12-07T14:34:08;7.60;99.90
46720;DHT22;32452;51.382;-0.002;2023-12-07T14:36:57;7.60;99.90
46720;DHT22;32452;51.382;-0.002;2023-12-07T14:39:43;7.60;99.90
46720;DHT22;32452;51.382;-0.002;2023-12-07T14:42:29;7.60;99.90
46720;DHT22;32452;51.382;-0.002;2023-12-07T14:45:14;7.60;99.90
46720;DHT22;32452;51.382;-0.002;2023-12-07T14:48:01;7.60;99.90
46720;DHT22;32452;51.382;-0.002;2023-12-07T14:50:47;7.50;99.90
46720;DHT22;32452;51.382;-0.002;2023-12-07T14:53:33;7.50;99.90
46720;DHT22;32452;51.382;-0.002;2023-12-07T14:56:19;7.50;99.90
46720;DHT22;32452;51.382;-0.002;2023-12-07T14:59:07;7.50;99.90
46720;DHT22;32452;51.382;-0.002;2023-12-07T15:01:53;7.50;99.90
46720;DHT22;32452;51.382;-0.002;2023-12-07T15:04:38;7.40;99.90
46720;DHT22;32452;51.382;-0.002;2023-12-07T15:07:24;7.40;99.90
46720;DHT22;32452;51.382;-0.002;2023-12-07T15:10:09;7.30;99.90
46720;DHT22;32452;51.382;-0.002;2023-12-07T15:12:55;7.40;99.90
46720;DHT22;32452;51.382;-0.002;2023-12-07T15:15:41;7.30;99.90
46720;DHT22;32452;51.382;-0.002;2023-12-07T15:18:27;7.30;99.90
46720;DHT22;32452;51.382;-0.002;2023-12-07T15:21:15;7.30;99.90
46720;DHT22;32452;51.382;-0.002;2023-12-07T15:24:01;7.30;99.90
46720;DHT22;32452;51.382;-0.002;2023-12-07T15:26:48;7.20;99.90
46720;DHT22;32452;51.382;-0.002;2023-12-07T15:29:34;7.20;99.90
46720;DHT22;32452;51.382;-0.002;2023-12-07T15:32:21;7.20;99.90
46720;DHT22;32452;51.382;-0.002;2023-12-07T15:35:07;7.20;99.90
46720;DHT22;32452;51.382;-0.002;2023-12-07T15:37:53;7.10;99.90
46720;DHT22;32452;51.382;-0.002;2023-12-07T15:40:39;7.10;99.90
46720;DHT22;32452;51.382;-0.002;2023-12-07T15:43:26;7.10;99.90
46720;DHT22;32452;51.382;-0.002;2023-12-07T15:46:12;7.00;99.90
46720;DHT22;32452;51.382;-0.002;2023-12-07T15:48:57;7.00;99.90
46720;DHT22;32452;51.382;-0.002;2023-12-07T15:51:44;7.00;99.90
46720;DHT22;32452;51.382;-0.002;2023-12-07T15:54:30;7.00;99.90
46720;DHT22;32452;51.382;-0.002;2023-12-07T15:57:24;6.90;99.90
46720;DHT22;32452;51.382;-0.002;2023-12-07T16:00:11;6.90;99.90
46720;DHT22;32452;51.382;-0.002;2023-12-07T16:02:57;6.90;99.90
46720;DHT22;32452;51.382;-0.002;2023-12-07T16:05:43;6.90;99.90
46720;DHT22;32452;51.382;-0.002;2023-12-07T16:08:28;6.90;99.90
46720;DHT22;32452;51.382;-0.002;2023-12-07T16:11:14;6.90;99.90
46720;DHT22;32452;51.382;-0.002;2023-12-07T16:14:00;6.90;99.90
46720;DHT22;32452;51.382;-0.002;2023-12-07T16:16:45;6.80;99.90
46720;DHT22;32452;51.382;-0.002;2023-12-07T16:19:31;6.80;99.90
46720;DHT22;32452;51.382;-0.002;2023-12-07T16:22:16;6.80;99.90
46720;DHT22;32452;51.382;-0.002;2023-12-07T16:25:02;6.80;99.90
46720;DHT22;32452;51.382;-0.002;2023-12-07T16:27:48;6.80;99.90
46720;DHT22;32452;51.382;-0.002;2023-12-07T16:30:33;6.80;99.90
46720;DHT22;32452;51.382;-0.002;2023-12-07T16:33:32;6.80;99.90
46720;DHT22;32452;51.382;-0.002;2023-12-07T16:36:19;6.80;99.90
46720;DHT22;32452;51.382;-0.002;2023-12-07T16:39:08;6.80;99.90
46720;DHT22;32452;51.382;-0.002;2023-12-07T16:41:54;6.80;99.90
46720;DHT22;32452;51.382;-0.002;2023-12-07T16:44:47;6.80;99.90
46720;DHT22;32452;51.382;-0.002;2023-12-07T16:47:37;6.70;99.90
46720;DHT22;32452;51.382;-0.002;2023-12-07T16:50:22;6.70;99.90
46720;DHT22;32452;51.382;-0.002;2023-12-07T16:53:08;6.70;99.90
46720;DHT22;32452;51.382;-0.002;2023-12-07T16:55:54;6.70;99.90
46720;DHT22;32452;51.382;-0.002;2023-12-07T16:58:41;6.70;99.90
46720;DHT22;32452;51.382;-0.002;2023-12-07T17:01:27;6.70;99.90
46720;DHT22;32452;51.382;-0.002;2023-12-07T17:04:15;6.60;99.90
46720;DHT22;32452;51.382;-0.002;2023-12-07T17:07:02;6.70;99.90
46720;DHT22;32452;51.382;-0.002;2023-12-07T17:09:48;6.70;99.90
46720;DHT22;32452;51.382;-0.002;2023-12-07T17:12:36;6.70;99.90
46720;DHT22;32452;51.382;-0.002;2023-12-07T17:15:21;6.70;99.90
46720;DHT22;32452;51.382;-0.002;2023-12-07T17:18:08;6.70;99.90
46720;DHT22;32452;51.382;-0.002;2023-12-07T17:20:54;6.70;99.90
46720;DHT22;32452;51.382;-0.002;2023-12-07T17:23:39;6.70;99.90
46720;DHT22;32452;51.382;-0.002;2023-12-07T17:26:26;6.70;99.90
46720;DHT22;32452;51.382;-0.002;2023-12-07T17:29:23;6.70;99.90
46720;DHT22;32452;51.382;-0.002;2023-12-07T17:32:09;6.70;99.90
46720;DHT22;32452;51.382;-0.002;2023-12-07T17:34:55;6.80;99.90
46720;DHT22;32452;51.382;-0.002;2023-12-07T17:37:40;6.80;99.90
46720;DHT22;32452;51.382;-0.002;2023-12-07T17:40:26;6.80;99.90
46720;DHT22;32452;51.382;-0.002;2023-12-07T17:43:12;6.80;99.90
46720;DHT22;32452;51.382;-0.002;2023-12-07T17:45:57;6.80;99.90